Time;durP1;ratioP1;P1;durP2;ratioP2;P2;SDS_P1;SDS_P2;PMS_P1;PMS_P2;Temp;Humidity;BMP_temperature;BMP_pressure;BME280_temperature;BME280_humidity;BME280_pressure;Samples;Min_cycle;Max_cycle;Signal;HPM_P1;HPM_P2
2021/10/17 00:00:48;;;;;;;13.80;5.70;;;;;;;;;;5054204;22;20215;-76
2021/10/17 00:03:14;;;;;;;12.80;5.93;;;;;;;;;;5072793;28;20456;-76
2021/10/17 00:05:39;;;;;;;10.80;5.43;;;;;;;;;;5076198;28;20202;-75
2021/10/17 00:08:09;;;;;;;9.00;4.80;;;;;;;;;;5066442;28;20167;-78
2021/10/17 00:10:35;;;;;;;11.77;5.93;;;;;;;;;;5071539;28;20175;-75
2021/10/17 00:13:01;;;;;;;11.97;5.43;;;;;;;;;;5070617;28;20442;-77
2021/10/17 00:15:27;;;;;;;12.43;5.60;;;;;;;;;;5071104;28;20421;-76
2021/10/17 00:17:53;;;;;;;11.87;5.17;;;;;;;;;;5078398;28;20413;-77
2021/10/17 00:20:19;;;;;;;13.60;6.40;;;;;;;;;;5079541;28;21101;-76
2021/10/17 00:22:45;;;;;;;14.17;6.13;;;;;;;;;;5077602;28;20187;-76
2021/10/17 00:25:11;;;;;;;12.93;5.83;;;;;;;;;;5074206;28;20936;-76
2021/10/17 00:27:37;;;;;;;13.17;5.70;;;;;;;;;;5075866;28;20598;-76
2021/10/17 00:30:03;;;;;;;11.57;5.83;;;;;;;;;;5074106;28;20445;-76
2021/10/17 00:32:28;;;;;;;15.97;5.67;;;;;;;;;;5076035;28;20236;-76
2021/10/17 00:34:54;;;;;;;12.03;5.60;;;;;;;;;;5079436;28;20431;-77
2021/10/17 00:37:19;;;;;;;12.47;6.23;;;;;;;;;;5075861;28;20175;-76
2021/10/17 00:39:45;;;;;;;9.37;6.03;;;;;;;;;;5074749;28;20217;-77
2021/10/17 00:42:10;;;;;;;14.83;5.80;;;;;;;;;;5075154;28;20213;-77
2021/10/17 00:44:38;;;;;;;11.87;6.10;;;;;;;;;;5076757;28;20175;-78
2021/10/17 00:47:04;;;;;;;13.67;6.03;;;;;;;;;;5075506;28;20175;-76
2021/10/17 00:49:32;;;;;;;20.63;5.10;;;;;;;;;;5073963;28;20430;-77
2021/10/17 00:51:57;;;;;;;15.70;6.57;;;;;;;;;;5069185;28;20214;-76
2021/10/17 00:54:23;;;;;;;10.30;5.67;;;;;;;;;;5055108;28;20444;-76
2021/10/17 00:56:48;;;;;;;15.07;5.50;;;;;;;;;;5070569;28;20172;-75
2021/10/17 00:59:13;;;;;;;10.17;5.90;;;;;;;;;;5073305;28;20207;-76
2021/10/17 01:01:39;;;;;;;9.10;5.90;;;;;;;;;;5072902;28;20206;-76
2021/10/17 01:04:05;;;;;;;9.77;6.20;;;;;;;;;;5075620;28;20160;-75
2021/10/17 01:06:30;;;;;;;10.60;6.53;;;;;;;;;;5072227;28;20426;-76
2021/10/17 01:08:56;;;;;;;15.80;6.90;;;;;;;;;;5073672;28;20222;-76
2021/10/17 01:11:21;;;;;;;13.43;5.50;;;;;;;;;;5072498;28;20209;-76
2021/10/17 01:13:47;;;;;;;14.43;6.70;;;;;;;;;;5073268;28;20193;-76
2021/10/17 01:16:12;;;;;;;9.53;6.50;;;;;;;;;;5069944;28;20190;-76
2021/10/17 01:18:38;;;;;;;12.20;6.70;;;;;;;;;;5069791;28;20255;-77
2021/10/17 01:21:03;;;;;;;11.57;5.43;;;;;;;;;;5073765;28;20203;-77
2021/10/17 01:23:29;;;;;;;11.37;5.80;;;;;;;;;;5073135;28;20193;-77
2021/10/17 01:25:54;;;;;;;11.10;6.03;;;;;;;;;;5076942;28;20183;-76
2021/10/17 01:28:20;;;;;;;7.60;5.40;;;;;;;;;;5072760;28;20179;-77
2021/10/17 01:30:45;;;;;;;14.30;6.43;;;;;;;;;;5073593;28;20205;-76
2021/10/17 01:33:11;;;;;;;10.53;5.80;;;;;;;;;;5074456;28;20905;-77
2021/10/17 01:35:37;;;;;;;14.43;7.00;;;;;;;;;;5074105;28;20183;-77
2021/10/17 01:38:02;;;;;;;13.63;6.97;;;;;;;;;;5074640;28;20613;-77
2021/10/17 01:40:28;;;;;;;13.90;5.93;;;;;;;;;;5074562;28;20195;-76
2021/10/17 01:42:53;;;;;;;15.37;6.60;;;;;;;;;;5072051;28;20199;-76
2021/10/17 01:45:18;;;;;;;9.57;6.83;;;;;;;;;;5074805;28;20189;-76
2021/10/17 01:47:47;;;;;;;11.53;7.20;;;;;;;;;;5072746;28;20180;-77
2021/10/17 01:50:15;;;;;;;12.57;5.63;;;;;;;;;;5073650;28;20254;-77
2021/10/17 01:52:41;;;;;;;9.20;6.40;;;;;;;;;;5073052;28;20449;-77
2021/10/17 01:55:06;;;;;;;14.73;7.30;;;;;;;;;;5074436;28;20428;-77
2021/10/17 01:57:32;;;;;;;13.37;6.80;;;;;;;;;;5073011;28;20179;-77
2021/10/17 01:59:57;;;;;;;14.57;6.40;;;;;;;;;;5074680;28;20206;-77
2021/10/17 02:02:22;;;;;;;13.10;7.33;;;;;;;;;;5076875;28;20210;-77
2021/10/17 02:04:48;;;;;;;13.03;7.30;;;;;;;;;;5073982;28;20167;-77
2021/10/17 02:07:13;;;;;;;13.23;7.70;;;;;;;;;;5072504;28;20596;-77
2021/10/17 02:09:38;;;;;;;13.60;7.00;;;;;;;;;;5070655;28;20184;-77
2021/10/17 02:12:04;;;;;;;10.30;6.90;;;;;;;;;;5071372;28;20207;-76
2021/10/17 02:14:29;;;;;;;12.00;6.77;;;;;;;;;;5070567;28;20292;-77
2021/10/17 02:16:57;;;;;;;10.37;6.53;;;;;;;;;;5076372;28;20454;-76
2021/10/17 02:19:22;;;;;;;12.87;7.50;;;;;;;;;;5071958;28;20321;-76
2021/10/17 02:21:48;;;;;;;10.80;6.57;;;;;;;;;;5071588;28;20473;-77
2021/10/17 02:24:16;;;;;;;10.70;6.40;;;;;;;;;;5074242;28;20288;-77
2021/10/17 02:26:42;;;;;;;12.20;7.33;;;;;;;;;;5072908;28;20182;-77
2021/10/17 02:29:07;;;;;;;20.77;7.50;;;;;;;;;;5074037;28;20425;-76
2021/10/17 02:31:32;;;;;;;10.73;6.70;;;;;;;;;;5072237;28;20246;-77
2021/10/17 02:33:58;;;;;;;14.60;7.50;;;;;;;;;;5060384;28;20175;-77
2021/10/17 02:36:23;;;;;;;10.10;6.90;;;;;;;;;;5070110;28;20179;-77
2021/10/17 02:38:48;;;;;;;9.43;6.90;;;;;;;;;;5070516;28;20182;-76
2021/10/17 02:41:14;;;;;;;11.00;6.83;;;;;;;;;;5071327;28;20205;-77
2021/10/17 02:43:39;;;;;;;12.90;7.00;;;;;;;;;;5070420;28;20727;-76
2021/10/17 02:46:07;;;;;;;10.17;6.40;;;;;;;;;;5072665;28;20177;-77
2021/10/17 02:48:33;;;;;;;15.30;7.97;;;;;;;;;;5074776;28;20230;-77
2021/10/17 02:50:58;;;;;;;15.07;8.10;;;;;;;;;;5072509;28;20481;-77
2021/10/17 02:53:23;;;;;;;14.90;7.90;;;;;;;;;;5073869;28;20186;-76
2021/10/17 02:55:49;;;;;;;10.10;7.03;;;;;;;;;;5074448;28;20203;-77
2021/10/17 02:58:14;;;;;;;13.70;7.60;;;;;;;;;;5073792;28;20277;-75
2021/10/17 03:00:40;;;;;;;10.47;6.27;;;;;;;;;;5066915;28;20258;-76
2021/10/17 03:03:05;;;;;;;11.40;7.13;;;;;;;;;;5066830;28;20336;-76
2021/10/17 03:05:31;;;;;;;13.27;6.67;;;;;;;;;;5056671;28;20617;-75
2021/10/17 03:07:56;;;;;;;12.80;7.57;;;;;;;;;;5068479;28;20182;-76
2021/10/17 03:10:22;;;;;;;12.07;7.37;;;;;;;;;;5070701;28;20175;-76
2021/10/17 03:12:48;;;;;;;10.33;6.57;;;;;;;;;;5076482;28;20202;-76
2021/10/17 03:15:13;;;;;;;16.17;7.80;;;;;;;;;;5076183;28;21072;-77
2021/10/17 03:17:39;;;;;;;11.40;7.50;;;;;;;;;;5073309;28;20239;-77
2021/10/17 03:20:04;;;;;;;15.37;7.23;;;;;;;;;;5074534;28;20699;-77
2021/10/17 03:22:29;;;;;;;12.03;6.97;;;;;;;;;;5077062;28;20191;-77
2021/10/17 03:24:55;;;;;;;13.80;7.57;;;;;;;;;;5076484;28;20183;-76
2021/10/17 03:27:20;;;;;;;12.93;6.93;;;;;;;;;;5077551;28;20179;-77
2021/10/17 03:29:46;;;;;;;12.03;7.43;;;;;;;;;;5076407;28;20180;-76
2021/10/17 03:32:11;;;;;;;13.83;7.23;;;;;;;;;;5078272;28;20199;-77
2021/10/17 03:34:36;;;;;;;19.90;7.60;;;;;;;;;;5075949;28;20206;-78
2021/10/17 03:37:02;;;;;;;13.17;7.70;;;;;;;;;;5077406;28;20175;-76
2021/10/17 03:39:27;;;;;;;16.00;7.37;;;;;;;;;;5073916;28;20190;-77
2021/10/17 03:41:52;;;;;;;14.60;7.83;;;;;;;;;;5075941;28;20207;-76
2021/10/17 03:44:18;;;;;;;12.23;7.50;;;;;;;;;;5077774;28;20182;-77
2021/10/17 03:46:46;;;;;;;12.20;6.93;;;;;;;;;;5075142;28;20190;-76
2021/10/17 03:49:11;;;;;;;12.30;6.93;;;;;;;;;;5077015;28;20186;-76
2021/10/17 03:51:39;;;;;;;12.47;8.20;;;;;;;;;;5072969;28;20441;-76
2021/10/17 03:54:05;;;;;;;14.40;8.17;;;;;;;;;;5073804;28;20183;-76
2021/10/17 03:56:30;;;;;;;13.23;8.03;;;;;;;;;;5073934;28;20441;-75
2021/10/17 03:58:58;;;;;;;12.33;6.77;;;;;;;;;;5073088;28;20215;-77
2021/10/17 04:01:23;;;;;;;18.70;7.77;;;;;;;;;;5071897;28;20209;-76
2021/10/17 04:03:49;;;;;;;14.40;7.30;;;;;;;;;;5069734;28;20425;-76
2021/10/17 04:06:17;;;;;;;9.63;6.80;;;;;;;;;;5072002;28;20194;-76
2021/10/17 04:08:44;;;;;;;13.60;8.03;;;;;;;;;;5069496;28;20179;-76
2021/10/17 04:11:09;;;;;;;11.30;7.60;;;;;;;;;;5073219;28;20438;-75
2021/10/17 04:13:34;;;;;;;12.07;6.97;;;;;;;;;;5068820;28;20468;-76
2021/10/17 04:16:00;;;;;;;14.17;7.70;;;;;;;;;;5072326;28;20183;-75
2021/10/17 04:18:25;;;;;;;10.90;7.30;;;;;;;;;;5071076;28;20184;-76
2021/10/17 04:20:50;;;;;;;12.67;7.23;;;;;;;;;;5074111;28;20195;-76
2021/10/17 04:23:16;;;;;;;12.60;7.83;;;;;;;;;;5072060;28;20183;-75
2021/10/17 04:25:41;;;;;;;11.67;7.70;;;;;;;;;;5069896;28;20177;-76
2021/10/17 04:28:06;;;;;;;12.50;7.70;;;;;;;;;;5067944;28;20183;-77
2021/10/17 04:30:32;;;;;;;13.13;8.20;;;;;;;;;;5072125;28;20214;-76
2021/10/17 04:32:57;;;;;;;13.87;9.00;;;;;;;;;;5074952;28;20203;-76
2021/10/17 04:35:23;;;;;;;12.13;8.00;;;;;;;;;;5070392;28;20179;-76
2021/10/17 04:37:48;;;;;;;15.87;8.70;;;;;;;;;;5069894;28;20190;-75
2021/10/17 04:40:14;;;;;;;12.13;7.73;;;;;;;;;;5071582;28;20322;-75
2021/10/17 04:42:39;;;;;;;13.50;9.00;;;;;;;;;;5071881;28;20222;-75
2021/10/17 04:45:05;;;;;;;14.50;9.03;;;;;;;;;;5070515;28;20641;-76
2021/10/17 04:47:30;;;;;;;15.30;9.50;;;;;;;;;;5071244;28;20183;-75
2021/10/17 04:49:56;;;;;;;16.30;9.97;;;;;;;;;;5070334;28;20474;-76
2021/10/17 04:52:21;;;;;;;15.67;9.87;;;;;;;;;;5069589;28;20226;-75
2021/10/17 04:54:46;;;;;;;25.00;10.67;;;;;;;;;;5070743;28;20194;-76
2021/10/17 04:57:12;;;;;;;14.73;10.03;;;;;;;;;;5072065;28;20197;-76
2021/10/17 04:59:37;;;;;;;14.50;9.23;;;;;;;;;;5071674;28;20199;-76
2021/10/17 05:02:03;;;;;;;15.93;9.10;;;;;;;;;;5072100;28;20211;-77
2021/10/17 05:04:28;;;;;;;20.20;10.20;;;;;;;;;;5075523;28;20203;-76
2021/10/17 05:06:53;;;;;;;14.87;9.87;;;;;;;;;;5072575;28;20182;-77
2021/10/17 05:09:21;;;;;;;15.60;9.23;;;;;;;;;;5070816;28;20175;-76
2021/10/17 05:11:47;;;;;;;16.27;9.30;;;;;;;;;;5075406;28;20214;-77
2021/10/17 05:14:13;;;;;;;18.30;9.37;;;;;;;;;;5075175;28;20421;-77
2021/10/17 05:16:38;;;;;;;14.87;9.13;;;;;;;;;;5067902;28;20184;-76
2021/10/17 05:19:03;;;;;;;23.07;9.43;;;;;;;;;;5066880;28;20203;-77
2021/10/17 05:21:28;;;;;;;14.70;9.10;;;;;;;;;;5065327;28;20225;-75
2021/10/17 05:23:57;;;;;;;15.53;9.77;;;;;;;;;;5070115;28;20184;-76
2021/10/17 05:26:22;;;;;;;16.37;9.90;;;;;;;;;;5076212;28;20179;-76
2021/10/17 05:28:47;;;;;;;11.37;8.27;;;;;;;;;;5070865;28;20517;-76
2021/10/17 05:31:15;;;;;;;14.20;8.40;;;;;;;;;;5070979;28;20191;-76
2021/10/17 05:33:41;;;;;;;15.93;8.97;;;;;;;;;;5068416;28;20882;-75
2021/10/17 05:36:07;;;;;;;18.00;9.67;;;;;;;;;;5070483;28;20426;-76
2021/10/17 05:38:32;;;;;;;12.90;9.20;;;;;;;;;;5070505;28;20195;-75
2021/10/17 05:40:58;;;;;;;13.80;8.00;;;;;;;;;;5070424;28;20214;-75
2021/10/17 05:43:23;;;;;;;20.97;9.97;;;;;;;;;;5060439;28;20232;-76
2021/10/17 05:45:49;;;;;;;11.93;8.37;;;;;;;;;;5070181;28;20671;-75
2021/10/17 05:48:14;;;;;;;19.73;8.73;;;;;;;;;;5069294;28;20519;-76
2021/10/17 05:50:39;;;;;;;14.50;7.80;;;;;;;;;;5067059;28;20198;-76
2021/10/17 05:53:05;;;;;;;13.50;6.93;;;;;;;;;;5067011;28;20174;-76
2021/10/17 05:55:30;;;;;;;12.57;7.93;;;;;;;;;;5074132;28;20210;-75
2021/10/17 05:57:55;;;;;;;11.57;7.50;;;;;;;;;;5052897;28;20187;-75
2021/10/17 06:00:26;;;;;;;13.60;7.17;;;;;;;;;;5050552;28;20229;-74
2021/10/17 06:02:52;;;;;;;14.37;7.50;;;;;;;;;;5053294;28;20213;-75
2021/10/17 06:05:17;;;;;;;14.13;7.50;;;;;;;;;;5073269;28;20422;-76
2021/10/17 06:07:42;;;;;;;15.40;8.13;;;;;;;;;;5070079;28;20183;-76
2021/10/17 06:10:09;;;;;;;16.50;8.20;;;;;;;;;;5071764;28;20183;-76
2021/10/17 06:12:36;;;;;;;12.77;7.60;;;;;;;;;;5070913;28;20207;-76
2021/10/17 06:15:01;;;;;;;17.70;6.73;;;;;;;;;;5071683;28;21350;-76
2021/10/17 06:17:27;;;;;;;17.20;7.40;;;;;;;;;;5068643;28;20433;-76
2021/10/17 06:19:52;;;;;;;17.07;7.17;;;;;;;;;;5069437;28;20647;-76
2021/10/17 06:22:17;;;;;;;19.20;9.17;;;;;;;;;;5062282;28;20210;-77
2021/10/17 06:24:43;;;;;;;16.20;7.90;;;;;;;;;;5065170;28;20187;-76
2021/10/17 06:27:08;;;;;;;10.03;7.33;;;;;;;;;;5061843;28;20182;-76
2021/10/17 06:29:33;;;;;;;11.43;6.90;;;;;;;;;;5063396;28;20184;-77
2021/10/17 06:31:58;;;;;;;12.53;7.27;;;;;;;;;;5065727;28;20683;-76
2021/10/17 06:34:24;;;;;;;14.60;7.00;;;;;;;;;;5062883;28;20212;-73
2021/10/17 06:36:49;;;;;;;25.80;7.80;;;;;;;;;;5063393;28;20179;-74
2021/10/17 06:39:15;;;;;;;13.33;7.37;;;;;;;;;;5061241;28;20195;-74
2021/10/17 06:41:40;;;;;;;12.23;6.37;;;;;;;;;;5058678;28;20191;-75
2021/10/17 06:44:06;;;;;;;14.90;7.27;;;;;;;;;;5060647;28;20186;-74
2021/10/17 06:46:31;;;;;;;14.33;6.90;;;;;;;;;;5061183;28;20555;-74
2021/10/17 06:48:56;;;;;;;10.67;7.10;;;;;;;;;;5064916;28;20171;-76
2021/10/17 06:51:22;;;;;;;16.73;7.60;;;;;;;;;;5067102;28;20194;-76
2021/10/17 06:53:47;;;;;;;11.40;7.30;;;;;;;;;;5062034;28;20175;-77
2021/10/17 06:56:12;;;;;;;14.43;6.50;;;;;;;;;;5062902;28;20189;-75
2021/10/17 06:58:38;;;;;;;15.97;6.57;;;;;;;;;;5061250;28;20179;-76
2021/10/17 07:01:03;;;;;;;11.13;6.87;;;;;;;;;;5063478;28;20246;-76
2021/10/17 07:03:28;;;;;;;17.20;6.40;;;;;;;;;;5062865;28;20259;-76
2021/10/17 07:05:54;;;;;;;10.93;6.20;;;;;;;;;;5064243;28;20206;-75
2021/10/17 07:08:19;;;;;;;21.50;6.87;;;;;;;;;;5060261;28;20176;-75
2021/10/17 07:10:44;;;;;;;14.47;6.60;;;;;;;;;;5064998;28;20219;-76
2021/10/17 07:13:09;;;;;;;17.20;6.10;;;;;;;;;;5062119;28;20179;-75
2021/10/17 07:15:35;;;;;;;10.53;6.57;;;;;;;;;;5060490;28;20186;-74
2021/10/17 07:18:00;;;;;;;15.90;6.30;;;;;;;;;;5066469;28;20196;-75
2021/10/17 07:20:25;;;;;;;10.70;6.87;;;;;;;;;;5060355;28;20233;-75
2021/10/17 07:22:51;;;;;;;12.00;6.00;;;;;;;;;;5059293;28;20229;-73
2021/10/17 07:25:16;;;;;;;10.93;6.13;;;;;;;;;;5056833;28;20179;-76
2021/10/17 07:27:42;;;;;;;10.90;6.30;;;;;;;;;;5065175;28;20194;-76
2021/10/17 07:30:08;;;;;;;20.20;7.63;;;;;;;;;;5061829;28;20187;-75
2021/10/17 07:32:33;;;;;;;12.80;6.63;;;;;;;;;;5069378;28;20468;-75
2021/10/17 07:34:58;;;;;;;10.90;7.27;;;;;;;;;;5066848;28;20256;-76
2021/10/17 07:37:23;;;;;;;10.73;6.70;;;;;;;;;;5060536;28;20189;-75
2021/10/17 07:39:49;;;;;;;16.93;6.47;;;;;;;;;;5063455;28;20201;-76
2021/10/17 07:42:14;;;;;;;10.87;6.50;;;;;;;;;;5067103;28;20192;-77
2021/10/17 07:44:39;;;;;;;13.57;6.17;;;;;;;;;;5068982;28;20194;-76
2021/10/17 07:47:05;;;;;;;10.70;5.90;;;;;;;;;;5069798;28;20725;-76
2021/10/17 07:49:33;;;;;;;13.07;6.87;;;;;;;;;;5064489;28;20826;-75
2021/10/17 07:51:58;;;;;;;13.90;6.93;;;;;;;;;;5066478;28;20195;-77
2021/10/17 07:54:23;;;;;;;14.10;6.70;;;;;;;;;;5064253;28;20442;-75
2021/10/17 07:56:49;;;;;;;18.00;6.90;;;;;;;;;;5064134;28;20186;-77
2021/10/17 07:59:14;;;;;;;14.43;7.10;;;;;;;;;;5071748;28;20203;-77
2021/10/17 08:01:42;;;;;;;9.70;6.57;;;;;;;;;;5073896;28;20206;-77
2021/10/17 08:04:08;;;;;;;12.30;6.30;;;;;;;;;;5070741;28;20187;-74
2021/10/17 08:06:33;;;;;;;12.17;6.60;;;;;;;;;;5061657;28;20484;-76
2021/10/17 08:08:59;;;;;;;13.43;7.10;;;;;;;;;;5063286;28;20184;-75
2021/10/17 08:11:24;;;;;;;15.30;7.80;;;;;;;;;;5065693;28;20226;-77
2021/10/17 08:13:49;;;;;;;15.37;7.00;;;;;;;;;;5066347;28;20184;-75
2021/10/17 08:16:15;;;;;;;9.70;6.60;;;;;;;;;;5068016;28;20175;-75
2021/10/17 08:18:40;;;;;;;12.90;6.77;;;;;;;;;;5068938;28;20180;-77
2021/10/17 08:21:05;;;;;;;12.53;6.80;;;;;;;;;;5066666;28;20241;-76
2021/10/17 08:23:31;;;;;;;12.53;6.63;;;;;;;;;;5070678;28;20183;-76
2021/10/17 08:25:56;;;;;;;15.43;6.70;;;;;;;;;;5071665;28;20179;-76
2021/10/17 08:28:24;;;;;;;11.30;6.80;;;;;;;;;;5076571;28;20175;-76
2021/10/17 08:30:50;;;;;;;10.43;5.97;;;;;;;;;;5071739;28;20175;-76
2021/10/17 08:33:16;;;;;;;15.20;6.77;;;;;;;;;;5075311;28;20875;-77
2021/10/17 08:35:47;;;;;;;12.83;6.50;;;;;;;;;;5061778;28;20447;-77
2021/10/17 08:38:12;;;;;;;12.60;6.33;;;;;;;;;;5066836;28;20433;-77
2021/10/17 08:40:39;;;;;;;14.80;7.47;;;;;;;;;;5070390;28;20466;-75
2021/10/17 08:43:05;;;;;;;17.60;7.13;;;;;;;;;;5070383;28;20184;-77
2021/10/17 08:45:32;;;;;;;16.33;7.47;;;;;;;;;;5067034;28;21135;-77
2021/10/17 08:47:59;;;;;;;10.10;6.93;;;;;;;;;;5068107;28;20179;-76
2021/10/17 08:50:25;;;;;;;18.87;7.27;;;;;;;;;;5068278;28;20438;-76
2021/10/17 08:52:50;;;;;;;12.20;6.73;;;;;;;;;;5064612;28;20468;-75
2021/10/17 08:57:59;;;;;;;14.13;7.33;;;;;;;;;;5026233;28;20268;-74
2021/10/17 09:00:24;;;;;;;11.80;6.73;;;;;;;;;;5024833;28;20467;-73
2021/10/17 09:02:50;;;;;;;12.80;7.23;;;;;;;;;;5029241;28;20560;-74
2021/10/17 09:05:15;;;;;;;11.37;6.70;;;;;;;;;;5032457;28;20831;-74
2021/10/17 09:07:40;;;;;;;11.03;6.70;;;;;;;;;;5026272;28;20258;-74
2021/10/17 09:10:16;;;;;;;15.30;7.50;;;;;;;;;;5027550;28;20227;-74
2021/10/17 09:12:46;;;;;;;19.10;7.37;;;;;;;;;;5032093;28;20262;-74
2021/10/17 09:15:20;;;;;;;14.77;7.23;;;;;;;;;;5036078;28;21127;-74
2021/10/17 09:18:02;;;;;;;18.67;7.47;;;;;;;;;;5028023;28;20975;-74
2021/10/17 09:20:27;;;;;;;13.13;7.33;;;;;;;;;;5022347;28;20467;-73
2021/10/17 09:22:52;;;;;;;10.73;6.70;;;;;;;;;;5020337;28;20434;-73
2021/10/17 09:25:29;;;;;;;11.57;6.70;;;;;;;;;;5033187;28;20250;-74
2021/10/17 09:27:54;;;;;;;13.63;6.33;;;;;;;;;;5021723;28;20179;-74
2021/10/17 09:30:20;;;;;;;10.87;6.30;;;;;;;;;;5025929;28;20489;-75
2021/10/17 09:32:45;;;;;;;13.93;6.73;;;;;;;;;;5031225;28;20223;-74
2021/10/17 09:35:10;;;;;;;11.10;6.83;;;;;;;;;;5031655;28;20208;-75
2021/10/17 09:37:41;;;;;;;10.30;6.90;;;;;;;;;;5017837;28;20549;-74
2021/10/17 09:40:19;;;;;;;12.60;7.27;;;;;;;;;;5021536;28;20567;-74
2021/10/17 09:43:02;;;;;;;15.10;8.17;;;;;;;;;;5022208;28;20910;-74
2021/10/17 09:45:27;;;;;;;14.23;7.70;;;;;;;;;;5026772;28;20469;-74
2021/10/17 09:47:52;;;;;;;13.30;7.53;;;;;;;;;;5028908;28;20608;-74
2021/10/17 09:50:18;;;;;;;15.23;7.93;;;;;;;;;;5031820;28;20199;-75
2021/10/17 09:52:53;;;;;;;10.27;6.20;;;;;;;;;;5033072;28;20192;-74
2021/10/17 09:55:18;;;;;;;11.87;7.10;;;;;;;;;;5032878;28;26600;-73
2021/10/17 09:57:43;;;;;;;11.23;7.10;;;;;;;;;;5027236;28;20923;-74
2021/10/17 10:00:09;;;;;;;14.63;6.70;;;;;;;;;;5029268;28;20295;-74
2021/10/17 10:02:34;;;;;;;15.10;6.73;;;;;;;;;;5030211;28;20280;-74
2021/10/17 10:04:59;;;;;;;14.87;7.20;;;;;;;;;;5033344;28;20575;-75
2021/10/17 10:07:25;;;;;;;15.93;7.63;;;;;;;;;;5029396;28;20203;-74
2021/10/17 10:49:58;;;;;;;13.43;7.27;;;;;;;;;;6243190;22;20279;-77
2021/10/17 10:52:23;;;;;;;17.10;7.93;;;;;;;;;;6245819;22;20396;-76
2021/10/17 10:54:49;;;;;;;15.37;7.23;;;;;;;;;;6244038;22;20475;-76
2021/10/17 10:57:18;;;;;;;17.07;7.33;;;;;;;;;;6273896;22;20515;-75
2021/10/17 11:00:04;;;;;;;17.87;7.77;;;;;;;;;;6276933;22;20146;-76
2021/10/17 11:02:29;;;;;;;12.73;7.40;;;;;;;;;;6278996;22;20388;-75
2021/10/17 11:05:07;;;;;;;14.17;7.13;;;;;;;;;;6279503;22;20826;-75
2021/10/17 11:07:33;;;;;;;17.33;8.30;;;;;;;;;;6253055;22;20224;-72
2021/10/17 11:10:17;;;;;;;11.00;8.00;;;;;;;;;;6277611;22;20858;-76
2021/10/17 11:12:46;;;;;;;13.57;7.90;;;;;;;;;;6252005;22;21042;-76
2021/10/17 11:15:12;;;;;;;12.97;7.17;;;;;;;;;;6278631;22;20708;-75
2021/10/17 11:17:38;;;;;;;10.23;6.93;;;;;;;;;;6251741;22;20424;-77
2021/10/17 11:20:04;;;;;;;12.43;7.13;;;;;;;;;;6279696;22;20388;-76
2021/10/17 11:22:34;;;;;;;13.60;7.50;;;;;;;;;;6278760;22;20150;-75
2021/10/17 11:24:59;;;;;;;14.33;7.57;;;;;;;;;;6279523;22;20375;-75
2021/10/17 11:27:24;;;;;;;14.43;7.60;;;;;;;;;;6279705;22;20361;-76
2021/10/17 11:29:49;;;;;;;18.00;8.03;;;;;;;;;;6279456;22;20487;-76
2021/10/17 11:32:17;;;;;;;17.37;8.30;;;;;;;;;;6252591;22;20154;-75
2021/10/17 11:35:03;;;;;;;17.33;7.70;;;;;;;;;;6279936;22;20146;-76
2021/10/17 11:37:30;;;;;;;11.90;7.60;;;;;;;;;;6278509;22;21144;-76
2021/10/17 11:40:00;;;;;;;14.10;7.20;;;;;;;;;;6280032;22;20389;-76
2021/10/17 11:42:26;;;;;;;13.77;6.73;;;;;;;;;;6279914;22;20365;-76
2021/10/17 11:44:51;;;;;;;18.10;7.93;;;;;;;;;;6278251;22;20489;-75
2021/10/17 11:47:20;;;;;;;15.57;6.60;;;;;;;;;;6250705;22;20829;-76
2021/10/17 11:49:47;;;;;;;14.30;7.67;;;;;;;;;;6273605;22;20186;-76
2021/10/17 11:52:16;;;;;;;14.37;6.47;;;;;;;;;;6271784;22;20377;-76
2021/10/17 11:54:42;;;;;;;11.13;6.00;;;;;;;;;;6271155;22;20370;-76
2021/10/17 11:57:07;;;;;;;14.40;6.60;;;;;;;;;;6271625;22;20365;-76
2021/10/17 11:59:32;;;;;;;11.70;6.43;;;;;;;;;;6269043;22;20373;-73
2021/10/17 12:01:57;;;;;;;10.23;6.87;;;;;;;;;;6275611;22;20204;-73
2021/10/17 12:04:39;;;;;;;12.87;5.70;;;;;;;;;;6271107;22;20143;-73
2021/10/17 12:07:05;;;;;;;8.47;5.57;;;;;;;;;;6272365;22;20139;-75
2021/10/17 12:09:30;;;;;;;12.60;5.93;;;;;;;;;;6271868;22;20435;-75
2021/10/17 12:11:59;;;;;;;10.83;5.57;;;;;;;;;;6272040;22;20253;-75
2021/10/17 12:14:24;;;;;;;10.20;5.80;;;;;;;;;;6271344;22;20597;-76
2021/10/17 12:16:53;;;;;;;10.20;6.27;;;;;;;;;;6272278;22;20362;-76
2021/10/17 12:19:23;;;;;;;12.23;6.10;;;;;;;;;;6270896;22;20154;-75
2021/10/17 12:21:49;;;;;;;11.60;7.03;;;;;;;;;;6272398;22;20377;-76
2021/10/17 12:24:14;;;;;;;12.57;6.57;;;;;;;;;;6272773;22;20376;-76
2021/10/17 12:26:48;;;;;;;9.80;6.00;;;;;;;;;;6273632;22;20233;-75
2021/10/17 12:29:14;;;;;;;12.53;5.80;;;;;;;;;;6271661;22;20210;-76
2021/10/17 12:31:41;;;;;;;8.40;5.60;;;;;;;;;;6272509;22;20399;-76
2021/10/17 12:34:08;;;;;;;9.90;5.33;;;;;;;;;;6272565;22;20369;-75
2021/10/17 12:36:34;;;;;;;9.73;5.90;;;;;;;;;;6269989;22;20391;-76
2021/10/17 12:39:00;;;;;;;10.00;5.13;;;;;;;;;;6271986;22;20412;-75
2021/10/17 12:41:26;;;;;;;9.50;4.40;;;;;;;;;;6271039;22;20834;-76
2021/10/17 12:43:52;;;;;;;15.50;5.17;;;;;;;;;;6271883;22;20398;-76
2021/10/17 12:46:20;;;;;;;8.33;4.77;;;;;;;;;;6272097;22;20397;-75
2021/10/17 12:48:50;;;;;;;8.70;4.60;;;;;;;;;;6271146;22;20158;-75
2021/10/17 12:51:33;;;;;;;10.63;5.53;;;;;;;;;;6271552;22;20400;-76
2021/10/17 12:54:05;;;;;;;13.10;5.00;;;;;;;;;;6272804;22;20426;-76
2021/10/17 12:56:31;;;;;;;7.17;5.10;;;;;;;;;;6269335;22;20855;-76
2021/10/17 12:59:05;;;;;;;8.83;4.20;;;;;;;;;;6268961;22;20424;-76
2021/10/17 13:01:30;;;;;;;10.83;4.47;;;;;;;;;;6270233;22;20172;-75
2021/10/17 13:04:09;;;;;;;6.40;4.20;;;;;;;;;;6269109;22;20365;-75
2021/10/17 13:06:34;;;;;;;10.90;4.50;;;;;;;;;;6270959;22;20153;-75
2021/10/17 13:09:05;;;;;;;7.53;4.63;;;;;;;;;;6271349;22;20369;-75
2021/10/17 13:11:34;;;;;;;6.37;3.93;;;;;;;;;;6269955;22;20166;-75
2021/10/17 13:14:07;;;;;;;16.30;4.90;;;;;;;;;;6270028;22;20384;-75
2021/10/17 13:16:38;;;;;;;9.37;4.03;;;;;;;;;;6269081;22;20354;-75
2021/10/17 13:19:06;;;;;;;11.23;5.10;;;;;;;;;;6268321;22;20473;-75
2021/10/17 13:21:31;;;;;;;8.00;4.70;;;;;;;;;;6270664;22;20457;-75
2021/10/17 13:23:56;;;;;;;11.97;4.83;;;;;;;;;;6244716;22;20775;-72
2021/10/17 13:26:22;;;;;;;7.13;4.70;;;;;;;;;;6239132;22;20155;-73
2021/10/17 13:28:54;;;;;;;11.53;5.30;;;;;;;;;;6236484;22;20174;-73
2021/10/17 13:31:20;;;;;;;8.93;5.30;;;;;;;;;;6264465;22;20182;-72
2021/10/17 13:33:45;;;;;;;10.63;5.40;;;;;;;;;;6265138;22;20714;-72
2021/10/17 13:36:15;;;;;;;8.37;5.07;;;;;;;;;;6264108;22;20479;-75
2021/10/17 13:38:40;;;;;;;6.33;4.60;;;;;;;;;;6263604;22;20187;-75
2021/10/17 13:41:07;;;;;;;9.27;5.57;;;;;;;;;;6264578;22;20447;-75
2021/10/17 13:43:33;;;;;;;10.17;5.50;;;;;;;;;;6261852;22;20166;-73
2021/10/17 13:45:58;;;;;;;9.33;5.40;;;;;;;;;;6264131;22;20373;-72
2021/10/17 13:48:23;;;;;;;9.93;5.30;;;;;;;;;;6267311;22;20480;-73
2021/10/17 13:50:49;;;;;;;8.93;5.83;;;;;;;;;;6269399;22;20246;-73
2021/10/17 13:53:14;;;;;;;8.90;4.97;;;;;;;;;;6269063;22;20173;-73
2021/10/17 13:55:39;;;;;;;9.10;5.17;;;;;;;;;;6271781;22;20155;-73
2021/10/17 13:58:04;;;;;;;7.63;4.73;;;;;;;;;;6268384;22;20174;-73
2021/10/17 14:00:30;;;;;;;9.10;5.33;;;;;;;;;;6265670;22;20800;-73
2021/10/17 14:02:55;;;;;;;10.00;5.47;;;;;;;;;;6262903;22;20474;-73
2021/10/17 14:05:21;;;;;;;7.03;4.83;;;;;;;;;;6263149;22;20147;-73
2021/10/17 14:07:47;;;;;;;8.10;5.10;;;;;;;;;;6263852;22;20150;-73
2021/10/17 14:10:12;;;;;;;7.87;4.87;;;;;;;;;;6263942;22;20855;-73
2021/10/17 14:12:38;;;;;;;8.70;4.60;;;;;;;;;;6271572;22;20157;-73
2021/10/17 14:15:05;;;;;;;10.60;5.37;;;;;;;;;;6271171;22;20143;-73
2021/10/17 14:17:30;;;;;;;7.40;4.20;;;;;;;;;;6270864;22;20719;-73
2021/10/17 14:19:55;;;;;;;11.50;5.53;;;;;;;;;;6270985;22;20392;-73
2021/10/17 14:22:20;;;;;;;10.07;5.43;;;;;;;;;;6271048;22;20291;-73
2021/10/17 14:24:46;;;;;;;10.17;4.73;;;;;;;;;;6271287;22;20145;-73
2021/10/17 14:27:11;;;;;;;9.20;5.07;;;;;;;;;;6270006;22;20609;-73
2021/10/17 14:29:37;;;;;;;12.93;4.97;;;;;;;;;;6272097;22;20177;-73
2021/10/17 14:32:03;;;;;;;12.00;5.50;;;;;;;;;;6272731;22;20573;-73
2021/10/17 14:34:29;;;;;;;15.67;5.10;;;;;;;;;;6270408;22;20138;-73
2021/10/17 14:36:54;;;;;;;8.33;4.57;;;;;;;;;;6272851;22;20423;-72
2021/10/17 14:39:19;;;;;;;10.00;5.00;;;;;;;;;;6272221;22;20174;-72
2021/10/17 14:41:45;;;;;;;10.87;5.27;;;;;;;;;;6272792;22;20167;-73
2021/10/17 14:44:11;;;;;;;13.23;5.70;;;;;;;;;;6242986;22;20162;-73
2021/10/17 14:46:36;;;;;;;10.20;4.53;;;;;;;;;;6272123;22;20149;-73
2021/10/17 14:49:02;;;;;;;10.20;4.40;;;;;;;;;;6272880;22;20385;-73
2021/10/17 14:51:30;;;;;;;11.03;5.90;;;;;;;;;;6245295;22;20192;-74
2021/10/17 14:53:55;;;;;;;13.10;4.97;;;;;;;;;;6272182;22;20150;-73
2021/10/17 14:56:20;;;;;;;9.17;5.10;;;;;;;;;;6272227;22;20740;-73
2021/10/17 14:58:46;;;;;;;7.73;5.20;;;;;;;;;;6272468;22;20196;-73
2021/10/17 15:01:11;;;;;;;10.13;5.77;;;;;;;;;;6272248;22;20246;-73
2021/10/17 15:03:36;;;;;;;10.13;5.67;;;;;;;;;;6272086;22;20146;-73
2021/10/17 15:06:02;;;;;;;9.53;5.17;;;;;;;;;;6272571;22;20139;-73
2021/10/17 15:08:27;;;;;;;12.60;7.20;;;;;;;;;;6272806;22;20589;-73